createdAt,value
2023-03-06T00:00:49.199Z,23.19
2023-03-06T00:03:15.502Z,23.94
2023-03-06T00:05:41.829Z,23.19
2023-03-06T00:08:08.141Z,22.22
2023-03-06T00:10:34.429Z,22.59
2023-03-06T00:13:00.752Z,23.25
2023-03-06T00:15:28.240Z,22.43
2023-03-06T00:17:54.645Z,23.93
2023-03-06T00:20:20.957Z,23.01
2023-03-06T00:22:47.254Z,24.44
2023-03-06T00:25:13.545Z,23.26
2023-03-06T00:27:40.784Z,23.24
2023-03-06T00:30:07.343Z,23.14
2023-03-06T00:32:33.712Z,22.82
2023-03-06T00:35:00.068Z,22.28
2023-03-06T00:37:26.400Z,22.24
2023-03-06T00:39:52.695Z,22.37
2023-03-06T00:42:19.016Z,22.63
2023-03-06T00:44:45.307Z,23.39
2023-03-06T00:47:11.585Z,22.82
2023-03-06T00:49:37.910Z,23.68
2023-03-06T00:52:04.216Z,22.99
2023-03-06T00:54:30.510Z,23.20
2023-03-06T00:56:56.865Z,23.32
2023-03-06T00:59:23.156Z,24.07
2023-03-06T01:01:49.470Z,24.01
2023-03-06T01:04:15.814Z,23.73
2023-03-06T01:06:42.111Z,24.00
2023-03-06T01:09:08.410Z,23.39
2023-03-06T01:11:34.718Z,23.25
2023-03-06T01:14:01.006Z,23.28
2023-03-06T01:16:27.300Z,22.96
2023-03-06T01:18:53.706Z,23.87
2023-03-06T01:21:19.996Z,24.23
2023-03-06T01:23:46.284Z,23.31
2023-03-06T01:26:12.609Z,23.41
2023-03-06T01:28:38.884Z,24.14
2023-03-06T01:31:05.170Z,23.39
2023-03-06T01:33:31.482Z,23.63
2023-03-06T01:35:57.802Z,24.30
2023-03-06T01:38:24.112Z,24.43
2023-03-06T01:40:50.445Z,25.33
2023-03-06T01:43:16.736Z,24.92
2023-03-06T01:45:43.149Z,25.16
2023-03-06T01:48:09.474Z,25.16
2023-03-06T01:50:35.793Z,24.75
2023-03-06T01:53:02.099Z,24.83
2023-03-06T01:55:28.410Z,25.24
2023-03-06T01:57:54.695Z,26.64
2023-03-06T02:00:21.003Z,26.80
2023-03-06T02:02:47.362Z,27.26
2023-03-06T02:05:13.673Z,27.09
2023-03-06T02:07:39.965Z,28.71
2023-03-06T02:10:06.270Z,29.54
2023-03-06T02:12:32.551Z,30.85
2023-03-06T02:14:58.842Z,30.08
2023-03-06T02:17:25.144Z,31.10
2023-03-06T02:19:51.438Z,31.09
2023-03-06T02:22:17.741Z,30.31
2023-03-06T02:24:44.084Z,30.42
2023-03-06T02:27:10.390Z,31.03
2023-03-06T02:29:42.810Z,30.87
2023-03-06T02:32:09.162Z,31.54
2023-03-06T02:34:35.469Z,31.21
2023-03-06T02:37:01.751Z,31.24
2023-03-06T02:39:28.062Z,32.09
2023-03-06T02:41:54.365Z,31.25
2023-03-06T02:44:20.661Z,31.49
2023-03-06T02:46:46.975Z,31.67
2023-03-06T02:49:13.261Z,32.18
2023-03-06T02:51:39.555Z,32.19
2023-03-06T02:54:05.895Z,30.72
2023-03-06T02:56:32.194Z,31.08
2023-03-06T02:58:58.491Z,31.27
2023-03-06T03:01:24.836Z,30.64
2023-03-06T03:03:51.198Z,30.22
2023-03-06T03:06:17.499Z,30.09
2023-03-06T03:08:43.833Z,30.19
2023-03-06T03:11:10.121Z,30.36
2023-03-06T03:13:36.419Z,31.96
2023-03-06T03:16:02.790Z,31.87
2023-03-06T03:18:29.096Z,32.11
2023-03-06T03:20:55.399Z,32.24
2023-03-06T03:23:21.712Z,32.53
2023-03-06T03:25:48.000Z,32.76
2023-03-06T03:28:14.289Z,33.59
2023-03-06T03:30:40.596Z,32.34
2023-03-06T03:33:06.888Z,32.00
2023-03-06T03:35:33.223Z,31.06
2023-03-06T03:37:59.551Z,31.15
2023-03-06T03:40:25.854Z,30.41
2023-03-06T03:42:52.164Z,29.36
2023-03-06T03:45:18.490Z,29.47
2023-03-06T03:47:44.780Z,29.76
2023-03-06T03:50:11.056Z,29.49
2023-03-06T03:52:37.372Z,29.21
2023-03-06T03:55:03.662Z,28.48
2023-03-06T03:57:29.956Z,27.80
2023-03-06T03:59:56.272Z,27.59
2023-03-06T04:02:22.642Z,28.42
2023-03-06T04:04:49.017Z,29.31
2023-03-06T04:07:15.350Z,29.18
2023-03-06T04:09:41.644Z,29.21
2023-03-06T04:12:07.940Z,27.96
2023-03-06T04:14:34.314Z,27.09
2023-03-06T04:17:00.604Z,27.04
2023-03-06T04:19:26.907Z,27.21
2023-03-06T04:21:53.218Z,28.18
2023-03-06T04:24:19.520Z,29.68
2023-03-06T04:26:45.826Z,30.22
2023-03-06T04:29:12.157Z,29.48
2023-03-06T04:31:38.516Z,30.17
2023-03-06T04:34:04.845Z,29.58
2023-03-06T04:36:31.152Z,29.65
2023-03-06T04:38:57.579Z,29.32
2023-03-06T04:41:23.927Z,29.78
2023-03-06T04:43:50.439Z,29.81
2023-03-06T04:46:16.731Z,28.57
2023-03-06T04:48:43.014Z,29.23
2023-03-06T04:51:09.325Z,29.18
2023-03-06T04:53:35.607Z,28.85
2023-03-06T04:56:01.900Z,28.72
2023-03-06T04:58:28.204Z,27.77
2023-03-06T05:00:54.602Z,27.57
2023-03-06T05:03:20.908Z,27.54
2023-03-06T05:05:47.216Z,27.66
2023-03-06T05:08:13.512Z,28.99
2023-03-06T05:10:39.807Z,29.70
2023-03-06T05:13:06.140Z,28.61
2023-03-06T05:15:32.439Z,28.72
2023-03-06T05:17:58.731Z,30.56
2023-03-06T05:20:25.068Z,29.87
2023-03-06T05:22:51.360Z,29.63
2023-03-06T05:25:17.646Z,30.00
2023-03-06T05:27:43.944Z,30.52
2023-03-06T05:30:10.239Z,31.67
2023-03-06T05:32:36.613Z,31.74
2023-03-06T05:35:02.943Z,32.37
2023-03-06T05:37:30.687Z,32.73
2023-03-06T05:39:57.162Z,32.48
2023-03-06T05:42:23.469Z,32.00
2023-03-06T05:44:49.773Z,32.46
2023-03-06T05:47:16.074Z,32.84
2023-03-06T05:49:42.386Z,32.59
2023-03-06T05:52:08.680Z,32.07
2023-03-06T05:54:34.989Z,31.19
2023-03-06T05:57:01.313Z,31.01
2023-03-06T05:59:27.611Z,31.29
2023-03-06T06:01:53.890Z,31.46
2023-03-06T06:04:20.203Z,31.27
2023-03-06T06:06:46.485Z,31.00
2023-03-06T06:09:13.950Z,31.10
2023-03-06T06:11:40.344Z,31.43
2023-03-06T06:14:06.637Z,31.82
2023-03-06T06:16:32.926Z,31.64
2023-03-06T06:18:59.254Z,30.78
2023-03-06T06:21:25.571Z,32.15
2023-03-06T06:23:51.862Z,30.66
2023-03-06T06:26:18.209Z,31.98
2023-03-06T06:28:44.499Z,31.24
2023-03-06T06:31:10.861Z,32.50
2023-03-06T06:33:37.202Z,33.70
2023-03-06T06:36:03.500Z,34.25
2023-03-06T06:38:29.778Z,35.05
2023-03-06T06:41:30.634Z,36.08
2023-03-06T06:43:42.339Z,34.68
2023-03-06T06:46:32.346Z,34.42
2023-03-06T06:48:54.913Z,35.94
2023-03-06T06:51:21.212Z,34.61
2023-03-06T06:53:47.491Z,35.25
2023-03-06T06:56:13.995Z,34.66
2023-03-06T06:58:40.338Z,33.37
2023-03-06T07:01:06.650Z,32.62
2023-03-06T07:03:33.042Z,32.12
2023-03-06T07:05:59.389Z,33.35
2023-03-06T07:08:25.688Z,32.63
2023-03-06T07:10:51.971Z,33.28
2023-03-06T07:13:18.271Z,33.22
2023-03-06T07:15:44.625Z,33.45
2023-03-06T07:18:10.954Z,32.44
2023-03-06T07:20:37.267Z,32.57
2023-03-06T07:23:03.560Z,32.59
2023-03-06T07:25:29.840Z,32.66
2023-03-06T07:27:56.230Z,33.02
2023-03-06T07:30:22.589Z,33.48
2023-03-06T07:32:48.894Z,33.62
2023-03-06T07:35:20.064Z,34.13
2023-03-06T07:37:47.067Z,34.60
2023-03-06T07:40:13.364Z,33.76
2023-03-06T07:42:40.780Z,33.09
2023-03-06T07:45:07.070Z,33.39
2023-03-06T07:47:33.358Z,33.78
2023-03-06T07:49:59.682Z,33.06
2023-03-06T07:52:25.979Z,34.30
2023-03-06T07:54:52.270Z,33.46
2023-03-06T07:57:18.583Z,33.39
2023-03-06T07:59:44.872Z,34.26
2023-03-06T08:02:11.188Z,33.80
2023-03-06T08:04:37.524Z,33.97
2023-03-06T08:07:03.834Z,33.39
2023-03-06T08:09:30.121Z,33.45
2023-03-06T08:11:56.498Z,33.83
2023-03-06T08:14:22.790Z,34.42
2023-03-06T08:16:49.073Z,33.29
2023-03-06T08:19:15.388Z,33.13
2023-03-06T08:21:41.685Z,32.94
2023-03-06T08:24:08.628Z,32.90
2023-03-06T08:26:35.027Z,33.05
2023-03-06T08:29:01.321Z,33.80
2023-03-06T08:31:27.709Z,35.50
2023-03-06T08:33:54.090Z,35.00
2023-03-06T08:36:20.391Z,36.56
2023-03-06T08:38:46.778Z,36.67
2023-03-06T08:41:13.097Z,36.86
2023-03-06T08:43:39.384Z,36.15
2023-03-06T08:46:05.725Z,36.61
2023-03-06T08:48:32.116Z,36.06
2023-03-06T08:50:58.441Z,37.16
2023-03-06T08:53:40.362Z,37.92
2023-03-06T08:56:08.224Z,37.94
2023-03-06T08:58:34.521Z,36.65
2023-03-06T09:01:00.970Z,36.75
2023-03-06T09:03:27.314Z,39.07
2023-03-06T09:05:53.614Z,37.60
2023-03-06T09:08:19.914Z,36.76
2023-03-06T09:10:46.249Z,37.41
2023-03-06T09:13:12.544Z,37.31
2023-03-06T09:15:38.838Z,37.94
2023-03-06T09:18:05.187Z,37.30
2023-03-06T09:20:31.508Z,37.19
2023-03-06T09:22:57.803Z,36.59
2023-03-06T09:25:24.114Z,36.01
2023-03-06T09:28:01.788Z,35.95
2023-03-06T09:30:31.699Z,35.74
2023-03-06T09:32:58.004Z,35.71
2023-03-06T09:35:24.350Z,35.72
2023-03-06T09:37:50.740Z,34.94
2023-03-06T09:40:17.043Z,35.55
2023-03-06T09:42:43.339Z,34.65
2023-03-06T09:45:09.643Z,35.06
2023-03-06T09:47:35.950Z,35.17
2023-03-06T09:50:02.248Z,35.08
2023-03-06T09:52:28.568Z,35.18
2023-03-06T09:54:54.860Z,35.04
2023-03-06T09:57:21.156Z,34.72
2023-03-06T09:59:47.458Z,33.57
2023-03-06T10:02:13.812Z,33.85
2023-03-06T10:04:40.193Z,34.13
2023-03-06T10:07:06.518Z,33.27
2023-03-06T10:09:32.805Z,32.94
2023-03-06T10:11:59.106Z,33.69
2023-03-06T10:14:25.442Z,33.28
2023-03-06T10:16:51.745Z,32.95
2023-03-06T10:19:18.043Z,32.76
2023-03-06T10:21:44.401Z,33.61
2023-03-06T10:24:10.708Z,34.64
2023-03-06T10:26:37.076Z,35.63
2023-03-06T10:29:03.440Z,34.97
2023-03-06T10:31:29.773Z,33.36
2023-03-06T10:33:56.094Z,34.18
2023-03-06T10:36:22.400Z,33.51
2023-03-06T10:38:48.850Z,32.46
2023-03-06T10:41:15.223Z,34.11
2023-03-06T10:43:41.563Z,33.99
2023-03-06T10:46:07.941Z,32.65
2023-03-06T10:48:34.454Z,30.17
2023-03-06T10:51:04.739Z,31.43
2023-03-06T10:53:36.012Z,30.69
2023-03-06T10:56:02.309Z,30.35
2023-03-06T10:58:29.003Z,30.66
2023-03-06T11:00:55.289Z,29.95
2023-03-06T11:03:21.597Z,28.46
2023-03-06T11:05:47.886Z,27.48
2023-03-06T11:08:14.683Z,27.23
2023-03-06T11:10:41.170Z,27.40
2023-03-06T11:13:07.496Z,26.62
2023-03-06T11:15:33.788Z,26.03
2023-03-06T11:18:00.120Z,25.83
2023-03-06T11:20:26.438Z,23.55
2023-03-06T11:22:52.727Z,25.07
2023-03-06T11:25:19.031Z,25.67
2023-03-06T11:27:45.326Z,27.48
2023-03-06T11:30:11.613Z,25.02
2023-03-06T11:32:37.972Z,24.47
2023-03-06T11:35:04.291Z,23.40
2023-03-06T11:37:30.587Z,21.58
2023-03-06T11:39:56.909Z,22.06
2023-03-06T11:42:23.197Z,22.03
2023-03-06T11:44:49.494Z,21.40
2023-03-06T11:47:15.846Z,21.14
2023-03-06T11:49:42.137Z,20.42
2023-03-06T11:52:08.732Z,19.12
2023-03-06T11:54:35.042Z,19.56
2023-03-06T11:57:01.324Z,20.69
2023-03-06T11:59:27.611Z,18.65
2023-03-06T12:01:53.958Z,18.31
2023-03-06T12:04:20.265Z,17.76
2023-03-06T12:06:46.550Z,17.46
2023-03-06T12:09:12.852Z,17.14
2023-03-06T12:11:39.147Z,15.68
2023-03-06T12:14:05.444Z,12.53
2023-03-06T12:16:31.795Z,10.96
2023-03-06T12:18:58.127Z,10.43
2023-03-06T12:21:24.404Z,9.25
2023-03-06T12:23:50.725Z,11.58
2023-03-06T12:26:17.039Z,11.50
2023-03-06T12:28:45.418Z,10.50
2023-03-06T12:31:12.292Z,12.38
2023-03-06T12:33:38.638Z,13.37
2023-03-06T12:36:05.001Z,11.79
2023-03-06T12:38:31.312Z,11.83
2023-03-06T12:40:57.597Z,11.09
2023-03-06T12:43:23.878Z,9.79
2023-03-06T12:45:50.259Z,9.65
2023-03-06T12:48:16.562Z,12.25
2023-03-06T12:50:42.846Z,10.65
2023-03-06T12:53:09.204Z,10.48
2023-03-06T12:55:35.475Z,9.68
2023-03-06T12:58:01.762Z,9.16
2023-03-06T13:00:28.064Z,9.37
2023-03-06T13:02:54.403Z,9.23
2023-03-06T13:05:20.707Z,9.27
2023-03-06T13:07:47.016Z,8.41
2023-03-06T13:10:13.365Z,9.02
2023-03-06T13:12:39.694Z,9.56
2023-03-06T13:15:05.984Z,8.55
2023-03-06T13:17:32.307Z,8.65
2023-03-06T13:19:58.592Z,9.05
2023-03-06T13:22:24.884Z,9.23
2023-03-06T13:24:54.896Z,8.91
2023-03-06T13:27:21.231Z,9.17
2023-03-06T13:29:47.530Z,9.66
2023-03-06T13:32:13.890Z,8.56
2023-03-06T13:34:40.208Z,8.88
2023-03-06T13:37:06.587Z,8.53
2023-03-06T13:39:32.871Z,9.15
2023-03-06T13:41:59.170Z,8.91
2023-03-06T13:44:25.490Z,10.08
2023-03-06T13:46:51.809Z,11.37
2023-03-06T13:49:18.107Z,12.83
2023-03-06T13:51:44.408Z,12.01
2023-03-06T13:54:10.733Z,12.50
2023-03-06T13:56:37.079Z,12.75
2023-03-06T13:59:03.432Z,12.39
2023-03-06T14:01:30.044Z,12.80
2023-03-06T14:03:56.364Z,11.54
2023-03-06T14:06:22.682Z,11.74
2023-03-06T14:08:48.967Z,11.06
2023-03-06T14:11:15.266Z,11.26
2023-03-06T14:13:47.071Z,11.95
2023-03-06T14:16:14.068Z,11.85
2023-03-06T14:18:40.384Z,12.45
2023-03-06T14:21:06.697Z,12.22
2023-03-06T14:23:32.980Z,13.12
2023-03-06T14:25:59.295Z,13.34
2023-03-06T14:28:25.593Z,13.01
2023-03-06T14:30:51.950Z,12.91
2023-03-06T14:33:18.370Z,12.99
2023-03-06T14:35:44.696Z,11.68
2023-03-06T14:38:10.994Z,12.12
2023-03-06T14:40:37.289Z,12.42
2023-03-06T14:43:03.597Z,11.92
2023-03-06T14:45:29.880Z,12.51
2023-03-06T14:47:56.195Z,12.89
2023-03-06T14:50:22.511Z,13.19
2023-03-06T14:52:48.808Z,12.83
2023-03-06T14:55:15.107Z,12.98
2023-03-06T14:57:41.418Z,13.68
2023-03-06T15:00:07.705Z,13.45
2023-03-06T15:02:34.041Z,13.46
2023-03-06T15:05:00.424Z,12.90
2023-03-06T15:07:26.730Z,13.44
2023-03-06T15:09:53.011Z,13.84
2023-03-06T15:12:19.318Z,14.06
2023-03-06T15:14:45.630Z,14.87
2023-03-06T15:17:11.926Z,14.54
2023-03-06T15:19:38.232Z,14.21
2023-03-06T15:22:04.519Z,14.18
2023-03-06T15:24:30.808Z,14.52
2023-03-06T15:26:57.121Z,15.20
2023-03-06T15:29:23.411Z,14.04
2023-03-06T15:31:49.707Z,14.09
2023-03-06T15:34:16.033Z,14.28
2023-03-06T15:36:42.343Z,14.15
2023-03-06T15:39:08.631Z,13.71
2023-03-06T15:41:34.949Z,14.45
2023-03-06T15:44:01.257Z,15.87
2023-03-06T15:46:27.544Z,15.14
2023-03-06T15:48:53.855Z,14.99
2023-03-06T15:51:20.189Z,14.44
2023-03-06T15:53:46.510Z,13.96
2023-03-06T15:56:12.815Z,14.11
2023-03-06T15:58:39.111Z,13.71
2023-03-06T16:01:05.402Z,14.97
2023-03-06T16:03:31.727Z,14.67
2023-03-06T16:05:58.026Z,14.46
2023-03-06T16:08:24.549Z,14.39
2023-03-06T16:10:50.888Z,14.61
2023-03-06T16:13:17.202Z,14.79
2023-03-06T16:15:43.492Z,15.58
2023-03-06T16:18:09.810Z,15.30
2023-03-06T16:20:36.100Z,15.49
2023-03-06T16:23:02.403Z,15.00
2023-03-06T16:25:28.726Z,15.34
2023-03-06T16:27:55.039Z,15.01
2023-03-06T16:30:21.329Z,14.74
2023-03-06T16:32:47.702Z,14.36
2023-03-06T16:35:14.006Z,14.37
2023-03-06T16:37:40.305Z,14.28
2023-03-06T16:40:06.609Z,14.62
2023-03-06T16:42:32.898Z,14.51
2023-03-06T16:44:59.219Z,14.76
2023-03-06T16:47:25.604Z,15.32
2023-03-06T16:49:51.917Z,14.02
2023-03-06T16:52:18.252Z,13.68
2023-03-06T16:54:44.840Z,13.32
2023-03-06T16:57:11.183Z,13.64
2023-03-06T16:59:37.474Z,14.30
2023-03-06T17:02:03.778Z,14.09
2023-03-06T17:04:30.063Z,13.83
2023-03-06T17:06:56.350Z,13.53
2023-03-06T17:09:22.649Z,13.41
2023-03-06T17:11:48.941Z,13.38
2023-03-06T17:14:15.226Z,13.72
2023-03-06T17:16:41.556Z,13.86
2023-03-06T17:19:07.835Z,12.62
2023-03-06T17:21:34.127Z,12.65
2023-03-06T17:24:00.421Z,13.29
2023-03-06T17:26:26.705Z,14.13
2023-03-06T17:28:52.985Z,13.87
2023-03-06T17:31:19.374Z,13.88
2023-03-06T17:33:45.713Z,15.04
2023-03-06T17:36:12.003Z,14.41
2023-03-06T17:38:38.323Z,15.78
2023-03-06T17:41:04.623Z,14.84
2023-03-06T17:43:30.910Z,14.62
2023-03-06T17:45:57.225Z,15.19
2023-03-06T17:48:23.503Z,14.84
2023-03-06T17:50:49.791Z,15.15
2023-03-06T17:53:16.098Z,14.51
2023-03-06T17:55:42.390Z,14.14
2023-03-06T17:58:10.248Z,15.02
2023-03-06T18:00:37.717Z,15.18
2023-03-06T18:03:04.019Z,15.38
2023-03-06T18:05:30.298Z,15.16
2023-03-06T18:07:56.616Z,15.25
2023-03-06T18:10:22.905Z,15.94
2023-03-06T18:12:49.240Z,16.32
2023-03-06T18:15:15.549Z,15.91
2023-03-06T18:17:41.840Z,15.17
2023-03-06T18:20:08.161Z,15.32
2023-03-06T18:22:34.509Z,14.99
2023-03-06T18:25:00.797Z,15.13
2023-03-06T18:27:27.099Z,14.81
2023-03-06T18:29:53.415Z,15.09
2023-03-06T18:32:19.760Z,15.35
2023-03-06T18:34:46.084Z,15.89
2023-03-06T18:37:12.475Z,15.51
2023-03-06T18:39:38.765Z,15.99
2023-03-06T18:42:05.053Z,16.02
2023-03-06T18:44:31.365Z,16.04
2023-03-06T18:46:57.697Z,16.75
2023-03-06T18:49:23.995Z,16.74
2023-03-06T18:51:50.289Z,16.99
2023-03-06T18:54:16.799Z,15.16
2023-03-06T18:56:43.310Z,14.79
2023-03-06T18:59:09.667Z,15.04
2023-03-06T19:01:35.950Z,15.79
2023-03-06T19:04:02.317Z,14.70
2023-03-06T19:06:28.696Z,15.19
2023-03-06T19:08:54.993Z,15.06
2023-03-06T19:11:21.307Z,16.10
2023-03-06T19:13:47.641Z,16.14
2023-03-06T19:16:13.960Z,16.53
2023-03-06T19:18:40.262Z,16.25
2023-03-06T19:21:06.566Z,15.47
2023-03-06T19:23:32.859Z,16.69
2023-03-06T19:25:59.151Z,16.47
2023-03-06T19:28:25.624Z,16.02
2023-03-06T19:30:51.917Z,16.90
2023-03-06T19:33:18.206Z,17.11
2023-03-06T19:35:44.542Z,16.71
2023-03-06T19:38:10.878Z,15.35
2023-03-06T19:40:37.295Z,16.32
2023-03-06T19:43:03.618Z,16.80
2023-03-06T19:45:29.918Z,16.23
2023-03-06T19:47:56.206Z,15.79
2023-03-06T19:50:22.522Z,15.79
2023-03-06T19:52:48.811Z,16.27
2023-03-06T19:55:15.092Z,15.91
2023-03-06T19:57:41.463Z,15.59
2023-03-06T20:00:07.755Z,15.92
2023-03-06T20:02:34.048Z,15.86
2023-03-06T20:05:00.366Z,16.07
2023-03-06T20:07:26.731Z,15.96
2023-03-06T20:09:53.020Z,15.90
2023-03-06T20:12:19.328Z,16.61
2023-03-06T20:14:45.622Z,15.17
2023-03-06T20:17:11.928Z,15.67
2023-03-06T20:19:38.462Z,14.78
2023-03-06T20:22:04.754Z,15.78
2023-03-06T20:24:31.057Z,15.50
2023-03-06T20:26:57.379Z,15.98
2023-03-06T20:29:23.668Z,15.54
2023-03-06T20:31:49.969Z,15.84
2023-03-06T20:34:16.327Z,15.51
2023-03-06T20:36:42.613Z,15.54
2023-03-06T20:39:08.941Z,14.70
2023-03-06T20:41:35.363Z,15.11
2023-03-06T20:44:01.656Z,15.69
2023-03-06T20:46:28.019Z,15.79
2023-03-06T20:48:54.387Z,16.16
2023-03-06T20:51:20.703Z,15.67
2023-03-06T20:53:46.989Z,15.34
2023-03-06T20:56:13.300Z,15.92
2023-03-06T20:58:39.677Z,15.51
2023-03-06T21:01:05.975Z,14.98
2023-03-06T21:03:32.297Z,15.32
2023-03-06T21:05:58.583Z,15.85
2023-03-06T21:08:24.886Z,15.93
2023-03-06T21:10:51.193Z,16.08
2023-03-06T21:13:17.488Z,15.92
2023-03-06T21:15:43.775Z,16.26
2023-03-06T21:18:10.087Z,15.81
2023-03-06T21:20:36.373Z,15.80
2023-03-06T21:23:02.674Z,14.99
2023-03-06T21:25:29.015Z,15.21
2023-03-06T21:27:55.319Z,15.28
2023-03-06T21:30:21.623Z,15.34
2023-03-06T21:32:47.934Z,15.83
2023-03-06T21:35:14.215Z,15.53
2023-03-06T21:37:40.505Z,15.19
2023-03-06T21:40:06.853Z,15.56
2023-03-06T21:42:33.144Z,15.18
2023-03-06T21:44:59.457Z,15.91
2023-03-06T21:47:25.754Z,14.98
2023-03-06T21:49:52.040Z,15.56
2023-03-06T21:52:18.326Z,14.81
2023-03-06T21:54:44.646Z,15.92
2023-03-06T21:57:10.957Z,15.62
2023-03-06T21:59:37.244Z,15.58
2023-03-06T22:02:03.550Z,15.47
2023-03-06T22:04:29.941Z,16.23
2023-03-06T22:06:56.298Z,15.50
2023-03-06T22:09:22.609Z,14.67
2023-03-06T22:11:48.918Z,14.83
2023-03-06T22:14:15.232Z,15.28
2023-03-06T22:16:41.581Z,13.99
2023-03-06T22:19:07.886Z,14.13
2023-03-06T22:21:34.178Z,14.64
2023-03-06T22:24:00.479Z,14.71
2023-03-06T22:26:26.783Z,13.64
2023-03-06T22:28:53.099Z,14.05
2023-03-06T22:31:25.009Z,13.91
2023-03-06T22:33:51.347Z,13.71
2023-03-06T22:36:17.636Z,13.82
2023-03-06T22:38:43.953Z,14.22
2023-03-06T22:41:10.235Z,14.45
2023-03-06T22:43:36.538Z,14.28
2023-03-06T22:46:03.072Z,14.32
2023-03-06T22:48:29.397Z,14.31
2023-03-06T22:50:55.695Z,13.62
2023-03-06T22:53:22.015Z,13.70
2023-03-06T22:55:48.304Z,14.15
2023-03-06T22:58:14.620Z,14.56
2023-03-06T23:00:40.941Z,13.84
2023-03-06T23:03:08.683Z,14.97
2023-03-06T23:05:34.989Z,14.76
2023-03-06T23:08:01.313Z,14.89
2023-03-06T23:10:27.616Z,14.13
2023-03-06T23:12:53.915Z,13.95
2023-03-06T23:15:20.230Z,14.53
2023-03-06T23:17:46.523Z,13.65
2023-03-06T23:20:12.820Z,14.10
2023-03-06T23:22:39.128Z,13.84
2023-03-06T23:25:05.437Z,13.57
2023-03-06T23:27:31.730Z,14.34
2023-03-06T23:29:58.037Z,13.66
2023-03-06T23:32:24.339Z,12.95
2023-03-06T23:34:50.638Z,13.24
2023-03-06T23:37:17.043Z,13.45
2023-03-06T23:39:43.346Z,12.78
2023-03-06T23:42:09.640Z,12.69
2023-03-06T23:44:35.950Z,12.64
2023-03-06T23:47:02.244Z,12.84
2023-03-06T23:49:28.527Z,12.70
2023-03-06T23:51:54.885Z,12.04
2023-03-06T23:54:21.181Z,12.66
2023-03-06T23:56:47.487Z,12.61
2023-03-06T23:59:13.784Z,12.87
